Time;durP1;ratioP1;P1;durP2;ratioP2;P2;SDS_P1;SDS_P2;PMS_P1;PMS_P2;Temp;Humidity;BMP_temperature;BMP_pressure;BME280_temperature;BME280_humidity;BME280_pressure;Samples;Min_cycle;Max_cycle;Signal;HPM_P1;HPM_P2
2021/06/26 00:01:10;;;;;;;3.20;0.65;;;;;;;;;;4905547;29;20047;-58
2021/06/26 00:03:36;;;;;;;2.67;0.80;;;;;;;;;;4903733;29;20272;-57
2021/06/26 00:06:02;;;;;;;2.35;0.70;;;;;;;;;;4904442;29;20044;-57
2021/06/26 00:08:28;;;;;;;2.28;0.60;;;;;;;;;;4905819;29;20043;-58
2021/06/26 00:10:55;;;;;;;1.40;0.47;;;;;;;;;;4905299;29;20071;-56
2021/06/26 00:13:20;;;;;;;1.45;0.50;;;;;;;;;;4903920;29;20043;-58
2021/06/26 00:15:47;;;;;;;4.72;0.70;;;;;;;;;;4904870;29;20040;-58
2021/06/26 00:18:13;;;;;;;2.33;0.70;;;;;;;;;;4904870;29;20040;-58
2021/06/26 00:20:39;;;;;;;3.30;0.40;;;;;;;;;;4902586;29;20119;-57
2021/06/26 00:23:04;;;;;;;0.88;0.40;;;;;;;;;;4906682;29;20370;-58
2021/06/26 00:25:30;;;;;;;0.70;0.50;;;;;;;;;;4904543;29;20045;-58
2021/06/26 00:27:59;;;;;;;1.55;0.55;;;;;;;;;;4905790;29;20088;-57
2021/06/26 00:30:25;;;;;;;1.45;0.50;;;;;;;;;;4904885;29;20071;-57
2021/06/26 00:32:50;;;;;;;5.45;1.17;;;;;;;;;;4903659;29;20127;-57
2021/06/26 00:35:16;;;;;;;1.52;0.50;;;;;;;;;;4904901;29;20179;-56
2021/06/26 00:37:43;;;;;;;1.45;0.50;;;;;;;;;;4903560;29;20049;-57
2021/06/26 00:40:09;;;;;;;1.90;0.60;;;;;;;;;;4904533;29;20733;-58
2021/06/26 00:42:36;;;;;;;1.23;0.40;;;;;;;;;;4903857;29;20493;-57
2021/06/26 00:45:03;;;;;;;1.50;0.52;;;;;;;;;;4887032;29;20152;-56
2021/06/26 00:47:29;;;;;;;3.03;0.60;;;;;;;;;;4903164;29;20055;-56
2021/06/26 00:49:55;;;;;;;1.15;0.47;;;;;;;;;;4903328;29;20044;-56
2021/06/26 00:52:21;;;;;;;7.03;0.60;;;;;;;;;;4898996;29;20039;-56
2021/06/26 00:54:47;;;;;;;0.90;0.40;;;;;;;;;;4902504;29;20044;-57
2021/06/26 00:57:13;;;;;;;0.95;0.30;;;;;;;;;;4903893;29;20450;-55
2021/06/26 00:59:39;;;;;;;3.85;0.70;;;;;;;;;;4905764;29;20044;-56
2021/06/26 01:02:07;;;;;;;2.40;0.80;;;;;;;;;;4887055;29;20040;-56
2021/06/26 01:04:33;;;;;;;1.00;0.40;;;;;;;;;;4902619;29;20051;-55
2021/06/26 01:06:59;;;;;;;1.88;0.68;;;;;;;;;;4907274;29;20040;-53
2021/06/26 01:09:25;;;;;;;3.63;0.55;;;;;;;;;;4888058;29;20040;-55
2021/06/26 01:11:57;;;;;;;2.20;0.50;;;;;;;;;;4905987;29;20046;-56
2021/06/26 01:14:26;;;;;;;6.40;0.70;;;;;;;;;;4906689;29;20044;-55
2021/06/26 01:16:52;;;;;;;2.85;0.70;;;;;;;;;;4905445;29;20629;-56
2021/06/26 01:19:18;;;;;;;1.98;0.60;;;;;;;;;;4906956;29;20055;-56
2021/06/26 01:21:44;;;;;;;2.10;0.50;;;;;;;;;;4907383;29;20076;-56
2021/06/26 01:24:10;;;;;;;1.27;0.55;;;;;;;;;;4905667;29;20036;-55
2021/06/26 01:26:36;;;;;;;1.65;0.55;;;;;;;;;;4906160;29;20969;-57
2021/06/26 01:29:11;;;;;;;1.05;0.40;;;;;;;;;;4903259;29;20124;-56
2021/06/26 01:31:38;;;;;;;3.33;0.60;;;;;;;;;;4904540;29;20174;-57
2021/06/26 01:34:04;;;;;;;1.67;0.60;;;;;;;;;;4906013;29;20046;-56
2021/06/26 01:36:30;;;;;;;3.58;0.75;;;;;;;;;;4907151;29;20068;-55
2021/06/26 01:38:56;;;;;;;3.95;0.60;;;;;;;;;;4905834;29;20442;-56
2021/06/26 01:41:22;;;;;;;1.65;0.50;;;;;;;;;;4904932;29;20134;-56
2021/06/26 01:43:48;;;;;;;1.75;0.50;;;;;;;;;;4906071;29;20032;-55
2021/06/26 01:46:14;;;;;;;2.22;0.60;;;;;;;;;;4906522;29;20058;-56
2021/06/26 01:48:40;;;;;;;1.98;0.57;;;;;;;;;;4905992;29;20517;-56
2021/06/26 01:51:06;;;;;;;2.63;0.60;;;;;;;;;;4888939;29;20091;-57
2021/06/26 01:53:32;;;;;;;1.20;0.50;;;;;;;;;;4902938;29;20048;-58
2021/06/26 01:55:58;;;;;;;1.15;0.40;;;;;;;;;;4907304;29;20047;-58
2021/06/26 01:58:24;;;;;;;1.20;0.50;;;;;;;;;;4905678;29;20039;-57
2021/06/26 02:00:50;;;;;;;1.55;0.52;;;;;;;;;;4907014;29;20044;-58
2021/06/26 02:03:16;;;;;;;1.75;0.50;;;;;;;;;;4906412;29;20481;-58
2021/06/26 02:05:42;;;;;;;3.42;0.40;;;;;;;;;;4906608;29;20068;-58
2021/06/26 02:08:08;;;;;;;3.92;0.77;;;;;;;;;;4904518;29;20044;-58
2021/06/26 02:10:34;;;;;;;1.67;0.50;;;;;;;;;;4904238;29;20501;-58
2021/06/26 02:13:00;;;;;;;2.90;0.50;;;;;;;;;;4890878;29;20095;-58
2021/06/26 02:15:25;;;;;;;4.82;0.50;;;;;;;;;;4901961;29;20056;-58
2021/06/26 02:17:51;;;;;;;1.52;0.50;;;;;;;;;;4905000;29;20068;-58
2021/06/26 02:20:17;;;;;;;1.80;0.47;;;;;;;;;;4904347;29;20091;-58
2021/06/26 02:22:45;;;;;;;4.28;0.60;;;;;;;;;;4904278;29;20031;-58
2021/06/26 02:25:11;;;;;;;1.63;0.40;;;;;;;;;;4906532;29;20048;-57
2021/06/26 02:27:37;;;;;;;1.90;0.50;;;;;;;;;;4903280;29;20583;-58
2021/06/26 02:30:04;;;;;;;1.15;0.50;;;;;;;;;;4891146;29;20179;-58
2021/06/26 02:32:30;;;;;;;2.67;0.50;;;;;;;;;;4904377;29;20501;-59
2021/06/26 02:34:56;;;;;;;2.67;0.63;;;;;;;;;;4907977;29;20043;-59
2021/06/26 02:37:22;;;;;;;1.95;0.50;;;;;;;;;;4906284;29;20046;-58
2021/06/26 02:39:49;;;;;;;3.00;0.50;;;;;;;;;;4905352;29;20540;-58
2021/06/26 02:42:15;;;;;;;2.30;0.60;;;;;;;;;;4904274;29;20036;-59
2021/06/26 02:44:41;;;;;;;2.80;0.47;;;;;;;;;;4905006;29;20070;-59
2021/06/26 02:47:07;;;;;;;1.70;0.50;;;;;;;;;;4903652;29;20044;-57
2021/06/26 02:49:33;;;;;;;3.05;0.68;;;;;;;;;;4905127;29;20044;-58
2021/06/26 02:51:58;;;;;;;3.75;0.68;;;;;;;;;;4904449;29;20751;-58
2021/06/26 02:54:24;;;;;;;2.05;0.68;;;;;;;;;;4904574;29;20075;-58
2021/06/26 02:56:50;;;;;;;3.15;0.70;;;;;;;;;;4905473;29;20493;-59
2021/06/26 02:59:16;;;;;;;2.65;0.52;;;;;;;;;;4905574;29;21144;-59
2021/06/26 03:01:41;;;;;;;1.13;0.40;;;;;;;;;;4901228;29;20047;-58
2021/06/26 03:04:07;;;;;;;3.03;0.90;;;;;;;;;;4903503;29;20521;-55
2021/06/26 03:06:33;;;;;;;2.90;0.80;;;;;;;;;;4903390;29;20036;-56
2021/06/26 03:08:59;;;;;;;2.47;0.80;;;;;;;;;;4904249;29;20623;-58
2021/06/26 03:11:25;;;;;;;2.75;0.73;;;;;;;;;;4904960;29;20086;-60
2021/06/26 03:14:40;;;;;;;2.60;0.70;;;;;;;;;;4871280;29;20108;-61
2021/06/26 03:17:09;;;;;;;3.05;0.70;;;;;;;;;;4783671;29;20073;-60
2021/06/26 03:19:34;;;;;;;3.90;0.80;;;;;;;;;;4791574;29;20536;-60
2021/06/26 03:22:00;;;;;;;2.83;0.73;;;;;;;;;;4851764;29;20904;-57
2021/06/26 03:24:30;;;;;;;1.88;0.50;;;;;;;;;;4884402;29;20751;-58
2021/06/26 03:26:56;;;;;;;1.85;0.65;;;;;;;;;;4876470;29;20576;-58
2021/06/26 03:29:22;;;;;;;2.40;0.60;;;;;;;;;;4853395;29;20073;-59
2021/06/26 03:31:53;;;;;;;4.20;0.82;;;;;;;;;;4838838;29;20073;-57
2021/06/26 03:34:19;;;;;;;3.28;0.70;;;;;;;;;;4854591;29;20247;-57
2021/06/26 03:36:45;;;;;;;6.18;0.88;;;;;;;;;;4856142;29;20053;-58
2021/06/26 03:39:14;;;;;;;1.65;0.60;;;;;;;;;;4846205;29;20060;-60
2021/06/26 03:41:40;;;;;;;10.13;0.98;;;;;;;;;;4851012;29;20136;-57
2021/06/26 03:44:06;;;;;;;4.85;0.80;;;;;;;;;;4855025;29;20041;-57
2021/06/26 03:46:32;;;;;;;3.08;0.80;;;;;;;;;;4853191;29;20498;-57
2021/06/26 03:48:58;;;;;;;2.28;0.60;;;;;;;;;;4866091;29;20056;-58
2021/06/26 03:51:24;;;;;;;2.30;0.65;;;;;;;;;;4866334;29;20045;-57
2021/06/26 03:53:53;;;;;;;2.13;0.52;;;;;;;;;;4858358;29;20588;-57
2021/06/26 03:56:19;;;;;;;1.90;0.70;;;;;;;;;;4864055;29;20040;-58
2021/06/26 03:58:44;;;;;;;6.32;0.90;;;;;;;;;;4868037;29;20040;-63
2021/06/26 04:01:10;;;;;;;2.65;0.85;;;;;;;;;;4866000;29;20176;-57
2021/06/26 04:03:36;;;;;;;5.15;1.10;;;;;;;;;;4868684;29;20040;-57
2021/06/26 04:06:02;;;;;;;4.85;0.70;;;;;;;;;;4870826;29;20482;-56
2021/06/26 04:08:28;;;;;;;4.00;0.80;;;;;;;;;;4882519;29;20055;-57
2021/06/26 04:10:53;;;;;;;4.75;0.77;;;;;;;;;;4883678;29;20056;-54
2021/06/26 04:13:19;;;;;;;4.72;0.80;;;;;;;;;;4885694;29;20104;-58
2021/06/26 04:15:45;;;;;;;2.03;0.70;;;;;;;;;;4890617;29;20588;-56
2021/06/26 04:18:11;;;;;;;6.25;1.15;;;;;;;;;;4886507;29;20127;-57
2021/06/26 04:20:37;;;;;;;5.55;1.23;;;;;;;;;;4903161;29;21787;-56
2021/06/26 04:23:02;;;;;;;5.03;1.00;;;;;;;;;;4902946;29;20544;-58
2021/06/26 04:25:31;;;;;;;5.13;1.00;;;;;;;;;;4894858;29;20056;-59
2021/06/26 04:28:04;;;;;;;6.32;1.02;;;;;;;;;;4905356;29;20048;-61
2021/06/26 04:30:29;;;;;;;;;;;;;;;;;;4904052;29;20040;-58
2021/06/26 04:32:55;;;;;;;4.05;0.95;;;;;;;;;;4910051;29;19919;-58
2021/06/26 04:35:24;;;;;;;7.50;1.00;;;;;;;;;;4908586;29;20146;-54
2021/06/26 04:37:50;;;;;;;5.85;0.88;;;;;;;;;;4907985;29;20076;-56
2021/06/26 04:40:16;;;;;;;2.55;0.77;;;;;;;;;;4907415;29;20159;-57
2021/06/26 04:42:42;;;;;;;3.72;0.90;;;;;;;;;;4906500;29;20033;-56
2021/06/26 04:45:08;;;;;;;3.88;0.80;;;;;;;;;;4908571;29;20075;-55
2021/06/26 04:47:34;;;;;;;4.80;0.98;;;;;;;;;;4906118;29;20498;-55
2021/06/26 04:50:00;;;;;;;4.93;0.98;;;;;;;;;;4907188;29;20051;-55
2021/06/26 04:52:25;;;;;;;6.10;0.80;;;;;;;;;;4905450;29;20048;-56
2021/06/26 04:54:51;;;;;;;8.40;1.20;;;;;;;;;;4909134;29;20040;-56
2021/06/26 04:57:17;;;;;;;4.07;0.77;;;;;;;;;;4907047;29;20123;-55
2021/06/26 04:59:43;;;;;;;2.75;1.00;;;;;;;;;;4906916;29;20104;-56
2021/06/26 05:02:09;;;;;;;3.92;1.10;;;;;;;;;;4907760;29;20046;-56
2021/06/26 05:04:35;;;;;;;3.47;0.90;;;;;;;;;;4905457;29;20040;-57
2021/06/26 05:07:00;;;;;;;4.63;1.10;;;;;;;;;;4904494;29;20044;-55
2021/06/26 05:09:26;;;;;;;3.85;0.70;;;;;;;;;;4906425;29;20096;-54
2021/06/26 05:11:52;;;;;;;5.95;1.10;;;;;;;;;;4907562;29;20059;-55
2021/06/26 05:14:18;;;;;;;2.80;0.93;;;;;;;;;;4906123;29;20417;-55
2021/06/26 05:16:44;;;;;;;2.78;0.73;;;;;;;;;;4906880;29;20075;-55
2021/06/26 05:19:10;;;;;;;3.88;1.02;;;;;;;;;;4890606;29;20202;-55
2021/06/26 05:22:00;;;;;;;4.47;1.13;;;;;;;;;;4882204;29;20068;-56
2021/06/26 05:24:26;;;;;;;5.00;1.17;;;;;;;;;;4888106;29;20044;-55
2021/06/26 05:26:51;;;;;;;5.85;1.25;;;;;;;;;;4906299;29;20033;-53
2021/06/26 05:29:17;;;;;;;3.53;0.95;;;;;;;;;;4909465;29;20079;-55
2021/06/26 05:31:43;;;;;;;6.60;1.10;;;;;;;;;;4906835;29;20036;-55
2021/06/26 05:34:09;;;;;;;3.40;1.05;;;;;;;;;;4908883;29;20039;-55
2021/06/26 05:36:35;;;;;;;6.18;1.20;;;;;;;;;;4905825;29;20036;-54
2021/06/26 05:39:01;;;;;;;4.82;1.35;;;;;;;;;;4908184;29;20059;-55
2021/06/26 05:41:27;;;;;;;6.07;1.58;;;;;;;;;;4907095;29;20048;-53
2021/06/26 05:43:53;;;;;;;3.33;1.23;;;;;;;;;;4908030;29;20051;-52
2021/06/26 05:46:19;;;;;;;3.50;1.20;;;;;;;;;;4907100;29;20048;-55
2021/06/26 05:48:45;;;;;;;4.07;1.90;;;;;;;;;;4908943;29;22013;-55
2021/06/26 05:51:14;;;;;;;4.70;1.73;;;;;;;;;;4907197;29;20709;-54
2021/06/26 05:53:40;;;;;;;3.42;1.42;;;;;;;;;;4907065;29;20548;-53
2021/06/26 05:56:06;;;;;;;3.88;1.40;;;;;;;;;;4890634;29;20091;-54
2021/06/26 05:58:33;;;;;;;4.85;1.40;;;;;;;;;;4904849;29;20044;-55
2021/06/26 06:01:00;;;;;;;3.72;1.50;;;;;;;;;;4905208;29;20048;-55
2021/06/26 06:03:26;;;;;;;10.73;1.40;;;;;;;;;;4905308;29;20044;-52
2021/06/26 06:05:52;;;;;;;4.22;1.55;;;;;;;;;;4906740;29;20103;-55
2021/06/26 06:08:19;;;;;;;6.13;1.85;;;;;;;;;;4903962;29;20067;-55
2021/06/26 06:10:45;;;;;;;6.00;1.50;;;;;;;;;;4906685;29;20048;-54
2021/06/26 06:13:11;;;;;;;4.50;1.27;;;;;;;;;;4889799;29;20416;-52
2021/06/26 06:15:37;;;;;;;4.60;1.20;;;;;;;;;;4905932;29;22495;-53
2021/06/26 06:18:03;;;;;;;5.63;1.33;;;;;;;;;;4907980;29;20036;-54
2021/06/26 06:20:29;;;;;;;4.28;1.30;;;;;;;;;;4904864;29;20143;-55
2021/06/26 06:22:54;;;;;;;6.40;1.45;;;;;;;;;;4905507;29;20091;-56
2021/06/26 06:25:20;;;;;;;5.97;1.25;;;;;;;;;;4906843;29;20047;-56
2021/06/26 06:27:46;;;;;;;5.38;1.20;;;;;;;;;;4908491;29;20064;-53
2021/06/26 06:30:12;;;;;;;6.68;1.45;;;;;;;;;;4890202;29;20071;-55
2021/06/26 06:32:38;;;;;;;6.13;1.30;;;;;;;;;;4904396;29;20059;-53
2021/06/26 06:35:05;;;;;;;4.38;1.30;;;;;;;;;;4908297;29;20137;-52
2021/06/26 06:37:31;;;;;;;5.45;1.20;;;;;;;;;;4906557;29;20047;-54
2021/06/26 06:39:56;;;;;;;5.10;1.60;;;;;;;;;;4906499;29;20056;-55
2021/06/26 06:42:22;;;;;;;6.55;1.63;;;;;;;;;;4906034;29;20046;-54
2021/06/26 06:44:48;;;;;;;2.85;1.10;;;;;;;;;;4890522;29;20470;-55
2021/06/26 06:47:14;;;;;;;3.35;1.15;;;;;;;;;;4890126;29;20047;-55
2021/06/26 06:49:40;;;;;;;4.38;1.20;;;;;;;;;;4906068;29;20111;-54
2021/06/26 06:52:06;;;;;;;4.40;1.30;;;;;;;;;;4908757;29;20118;-55
2021/06/26 06:54:32;;;;;;;4.72;0.98;;;;;;;;;;4905345;29;20400;-54
2021/06/26 06:56:57;;;;;;;7.85;1.10;;;;;;;;;;4889902;29;20036;-54
2021/06/26 06:59:23;;;;;;;6.03;1.00;;;;;;;;;;4888863;29;20036;-55
2021/06/26 07:01:49;;;;;;;7.00;1.00;;;;;;;;;;4905076;29;21884;-55
2021/06/26 07:04:15;;;;;;;3.20;1.00;;;;;;;;;;4905831;29;20040;-55
2021/06/26 07:06:41;;;;;;;2.90;0.93;;;;;;;;;;4889112;29;20103;-55
2021/06/26 07:09:07;;;;;;;2.42;0.80;;;;;;;;;;4908081;29;20174;-52
2021/06/26 07:11:33;;;;;;;3.17;0.93;;;;;;;;;;4905517;29;20043;-56
2021/06/26 07:13:59;;;;;;;4.20;0.90;;;;;;;;;;4907284;29;20219;-56
2021/06/26 07:16:25;;;;;;;3.63;0.98;;;;;;;;;;4905290;29;20056;-56
2021/06/26 07:18:50;;;;;;;4.75;0.98;;;;;;;;;;4905584;29;20091;-55
2021/06/26 07:21:16;;;;;;;4.22;1.00;;;;;;;;;;4905382;29;20091;-55
2021/06/26 07:23:42;;;;;;;2.65;0.77;;;;;;;;;;4905172;29;20036;-55
2021/06/26 07:26:08;;;;;;;7.13;1.17;;;;;;;;;;4908474;29;20040;-55
2021/06/26 07:28:34;;;;;;;4.80;0.90;;;;;;;;;;4906884;29;20644;-54
2021/06/26 07:31:01;;;;;;;2.33;0.68;;;;;;;;;;4904807;29;20103;-51
2021/06/26 07:33:27;;;;;;;5.25;0.90;;;;;;;;;;4906334;29;20044;-55
2021/06/26 07:35:53;;;;;;;2.67;0.75;;;;;;;;;;4891295;29;20044;-55
2021/06/26 07:38:19;;;;;;;2.78;0.93;;;;;;;;;;4906992;29;20058;-55
2021/06/26 07:40:44;;;;;;;5.25;0.90;;;;;;;;;;4906430;29;20044;-53
2021/06/26 07:43:10;;;;;;;5.85;1.00;;;;;;;;;;4905877;29;20441;-55
2021/06/26 07:45:36;;;;;;;4.85;1.00;;;;;;;;;;4887393;29;20076;-55
2021/06/26 07:48:02;;;;;;;2.50;0.73;;;;;;;;;;4906564;29;20655;-55
2021/06/26 07:50:28;;;;;;;2.70;0.70;;;;;;;;;;4905283;29;20034;-54
2021/06/26 07:52:54;;;;;;;4.65;0.70;;;;;;;;;;4906819;29;20149;-52
2021/06/26 07:55:20;;;;;;;3.17;0.70;;;;;;;;;;4906202;29;20043;-53
2021/06/26 07:57:46;;;;;;;2.70;0.60;;;;;;;;;;4907748;29;20043;-53
2021/06/26 08:00:12;;;;;;;2.92;0.77;;;;;;;;;;4886852;29;20098;-53
2021/06/26 08:02:38;;;;;;;2.13;0.70;;;;;;;;;;4906094;29;20048;-55
2021/06/26 08:05:04;;;;;;;3.80;0.75;;;;;;;;;;4891051;29;20040;-55
2021/06/26 08:07:30;;;;;;;2.05;0.65;;;;;;;;;;4911781;29;20040;-54
2021/06/26 08:09:55;;;;;;;3.80;0.60;;;;;;;;;;4912771;29;20050;-56
2021/06/26 08:12:21;;;;;;;4.00;0.68;;;;;;;;;;4910773;29;20128;-52
2021/06/26 08:14:47;;;;;;;2.15;0.70;;;;;;;;;;4912392;29;20053;-55
2021/06/26 08:17:13;;;;;;;2.00;0.60;;;;;;;;;;4911194;29;20043;-52
2021/06/26 08:19:40;;;;;;;2.50;0.80;;;;;;;;;;4908953;29;20062;-53
2021/06/26 08:22:06;;;;;;;2.42;0.70;;;;;;;;;;4912223;29;20060;-54
2021/06/26 08:24:33;;;;;;;2.63;0.70;;;;;;;;;;4911131;29;20167;-55
2021/06/26 08:26:59;;;;;;;3.83;0.73;;;;;;;;;;4911794;29;20031;-54
2021/06/26 08:29:24;;;;;;;1.70;0.60;;;;;;;;;;4910904;29;20044;-53
2021/06/26 08:31:50;;;;;;;3.25;0.57;;;;;;;;;;4911432;29;20051;-55
2021/06/26 08:34:16;;;;;;;4.25;0.82;;;;;;;;;;4911548;29;20080;-53
2021/06/26 08:36:42;;;;;;;2.03;0.60;;;;;;;;;;4912052;29;20126;-53
2021/06/26 08:39:08;;;;;;;2.13;0.60;;;;;;;;;;4912346;29;20521;-54
2021/06/26 08:41:43;;;;;;;3.72;0.80;;;;;;;;;;4910767;29;20131;-55
2021/06/26 08:44:11;;;;;;;2.78;0.70;;;;;;;;;;4912342;29;20710;-52
2021/06/26 08:46:44;;;;;;;3.00;0.80;;;;;;;;;;4910316;29;20130;-54
2021/06/26 08:49:10;;;;;;;1.90;0.60;;;;;;;;;;4913192;29;21068;-55
2021/06/26 08:51:36;;;;;;;2.53;0.77;;;;;;;;;;4912142;29;20047;-54
2021/06/26 08:54:02;;;;;;;2.35;0.60;;;;;;;;;;4911736;29;20126;-54
2021/06/26 08:56:28;;;;;;;1.90;0.70;;;;;;;;;;4891913;29;20043;-54
2021/06/26 08:58:54;;;;;;;3.65;0.68;;;;;;;;;;4911649;29;20134;-52
2021/06/26 09:01:20;;;;;;;2.25;0.63;;;;;;;;;;4910457;29;20191;-55
2021/06/26 09:03:45;;;;;;;2.80;0.70;;;;;;;;;;4912242;29;20132;-52
2021/06/26 09:06:11;;;;;;;2.10;0.60;;;;;;;;;;4911540;29;20043;-54
2021/06/26 09:08:47;;;;;;;2.20;0.60;;;;;;;;;;4894168;29;20068;-52
2021/06/26 09:11:17;;;;;;;3.35;0.68;;;;;;;;;;4880379;29;20036;-55
2021/06/26 09:13:43;;;;;;;4.20;0.70;;;;;;;;;;4911227;29;20098;-54
2021/06/26 09:16:13;;;;;;;2.20;0.70;;;;;;;;;;4913010;29;20047;-54
2021/06/26 09:18:42;;;;;;;3.42;0.70;;;;;;;;;;4907668;29;20044;-52
2021/06/26 09:21:23;;;;;;;4.82;0.90;;;;;;;;;;4907565;29;20079;-55
2021/06/26 09:24:01;;;;;;;2.47;0.80;;;;;;;;;;4906626;29;20409;-56
2021/06/26 09:26:27;;;;;;;3.67;0.70;;;;;;;;;;4906895;29;20506;-56
2021/06/26 09:28:53;;;;;;;2.30;0.50;;;;;;;;;;4908076;29;20144;-55
2021/06/26 09:31:21;;;;;;;3.10;0.90;;;;;;;;;;4907086;29;20052;-53
2021/06/26 09:34:00;;;;;;;2.47;0.77;;;;;;;;;;4908301;29;20044;-55
2021/06/26 09:36:30;;;;;;;1.92;0.60;;;;;;;;;;4906915;29;20068;-54
2021/06/26 09:38:58;;;;;;;1.65;0.60;;;;;;;;;;4909179;29;20043;-55
2021/06/26 09:41:24;;;;;;;2.40;0.70;;;;;;;;;;4906939;29;20182;-52
2021/06/26 09:43:50;;;;;;;3.95;0.60;;;;;;;;;;4907618;29;20035;-54
2021/06/26 09:46:17;;;;;;;2.35;0.68;;;;;;;;;;4908579;29;20456;-52
2021/06/26 09:48:53;;;;;;;2.28;0.55;;;;;;;;;;4907685;29;20743;-55
2021/06/26 09:51:20;;;;;;;1.55;0.55;;;;;;;;;;4908672;29;20051;-54
2021/06/26 09:54:09;;;;;;;2.17;0.70;;;;;;;;;;4909912;29;20044;-55
2021/06/26 09:56:38;;;;;;;2.85;0.68;;;;;;;;;;4895284;29;20048;-55
2021/06/26 09:59:04;;;;;;;2.95;0.80;;;;;;;;;;4908955;29;20263;-55
2021/06/26 10:01:32;;;;;;;1.73;0.60;;;;;;;;;;4907908;29;20517;-55
2021/06/26 10:03:58;;;;;;;1.63;0.47;;;;;;;;;;4895017;29;20407;-54
2021/06/26 10:06:24;;;;;;;2.40;0.60;;;;;;;;;;4908200;29;20140;-54
2021/06/26 10:08:50;;;;;;;2.15;0.73;;;;;;;;;;4907946;29;20131;-55
2021/06/26 10:11:16;;;;;;;2.20;0.70;;;;;;;;;;4907072;29;20571;-52
2021/06/26 10:13:42;;;;;;;2.85;0.65;;;;;;;;;;4906217;29;20036;-55
2021/06/26 10:16:08;;;;;;;1.52;0.50;;;;;;;;;;4907460;29;20056;-54
2021/06/26 10:18:35;;;;;;;3.10;0.68;;;;;;;;;;4906251;29;20051;-55
2021/06/26 10:21:01;;;;;;;2.13;0.65;;;;;;;;;;4905862;29;20524;-51
2021/06/26 10:23:34;;;;;;;4.63;0.60;;;;;;;;;;4905913;29;20055;-55
2021/06/26 10:26:00;;;;;;;2.03;0.70;;;;;;;;;;4908054;29;20036;-55
2021/06/26 10:28:26;;;;;;;1.60;0.55;;;;;;;;;;4905547;29;20039;-55
2021/06/26 10:30:59;;;;;;;1.65;0.52;;;;;;;;;;4906387;29;20044;-54
2021/06/26 10:33:27;;;;;;;3.28;0.60;;;;;;;;;;4905737;29;20098;-55
2021/06/26 10:35:54;;;;;;;2.03;0.68;;;;;;;;;;4907948;29;20040;-55
2021/06/26 10:38:20;;;;;;;1.98;0.60;;;;;;;;;;4906205;29;20061;-52
2021/06/26 10:40:54;;;;;;;2.55;0.60;;;;;;;;;;4905720;29;20051;-55
2021/06/26 10:43:20;;;;;;;1.90;0.50;;;;;;;;;;4905191;29;20107;-55
2021/06/26 10:45:46;;;;;;;1.90;0.60;;;;;;;;;;4891041;29;20040;-54
2021/06/26 10:48:17;;;;;;;1.80;0.60;;;;;;;;;;4906326;29;20139;-55
2021/06/26 10:50:53;;;;;;;2.03;0.60;;;;;;;;;;4905075;29;20402;-55
2021/06/26 10:53:29;;;;;;;3.50;0.70;;;;;;;;;;4906420;29;20047;-55
2021/06/26 10:56:05;;;;;;;1.70;0.60;;;;;;;;;;4906556;29;20040;-54
2021/06/26 10:58:32;;;;;;;2.13;0.60;;;;;;;;;;4880533;29;20092;-54
2021/06/26 11:00:58;;;;;;;3.22;0.60;;;;;;;;;;4896288;29;20119;-54
2021/06/26 11:03:28;;;;;;;2.03;0.60;;;;;;;;;;4904686;29;20394;-55
2021/06/26 11:05:54;;;;;;;1.83;0.60;;;;;;;;;;4905909;29;20066;-55
2021/06/26 11:08:20;;;;;;;2.13;0.60;;;;;;;;;;4904833;29;20127;-54
2021/06/26 11:10:57;;;;;;;2.90;1.00;;;;;;;;;;4905200;29;20075;-53
2021/06/26 11:13:24;;;;;;;1.95;0.52;;;;;;;;;;4904059;29;20044;-55
2021/06/26 11:15:50;;;;;;;2.50;0.70;;;;;;;;;;4889002;29;20246;-55
2021/06/26 11:18:16;;;;;;;3.05;0.80;;;;;;;;;;4906479;29;20043;-55
2021/06/26 11:20:45;;;;;;;2.03;0.68;;;;;;;;;;4905827;29;20066;-55
2021/06/26 11:23:19;;;;;;;3.67;0.70;;;;;;;;;;4904327;29;20622;-55
2021/06/26 11:25:45;;;;;;;3.17;0.70;;;;;;;;;;4904994;29;20311;-54
2021/06/26 11:28:12;;;;;;;2.65;0.70;;;;;;;;;;4906036;29;20052;-54
2021/06/26 11:30:39;;;;;;;4.00;0.77;;;;;;;;;;4904818;29;20040;-56
2021/06/26 11:33:05;;;;;;;2.60;0.80;;;;;;;;;;4904872;29;20102;-56
2021/06/26 11:35:32;;;;;;;1.45;0.60;;;;;;;;;;4905701;29;20051;-55
2021/06/26 11:37:58;;;;;;;3.92;0.70;;;;;;;;;;4905124;29;20047;-54
2021/06/26 11:40:25;;;;;;;1.92;0.57;;;;;;;;;;4903995;29;20655;-54
2021/06/26 11:42:59;;;;;;;2.03;0.70;;;;;;;;;;4905190;29;20338;-55
2021/06/26 11:45:27;;;;;;;1.58;0.60;;;;;;;;;;4906041;29;20524;-55
2021/06/26 11:48:07;;;;;;;6.72;0.80;;;;;;;;;;4906231;29;20044;-55
2021/06/26 11:50:33;;;;;;;2.25;0.80;;;;;;;;;;4906104;29;20036;-55
2021/06/26 11:53:03;;;;;;;2.17;0.70;;;;;;;;;;4904386;29;20041;-55
2021/06/26 11:55:34;;;;;;;2.47;0.80;;;;;;;;;;4903800;29;20052;-55
2021/06/26 11:58:00;;;;;;;1.65;0.60;;;;;;;;;;4905619;29;20535;-55
2021/06/26 12:00:26;;;;;;;3.75;0.70;;;;;;;;;;4903786;29;20142;-54
2021/06/26 12:02:51;;;;;;;2.08;0.60;;;;;;;;;;4905180;29;20348;-54
2021/06/26 12:05:20;;;;;;;2.88;0.75;;;;;;;;;;4905966;29;20047;-54
2021/06/26 12:07:46;;;;;;;2.15;0.60;;;;;;;;;;4907554;29;20042;-55
2021/06/26 12:10:12;;;;;;;3.38;0.80;;;;;;;;;;4905406;29;20048;-55
2021/06/26 12:12:39;;;;;;;2.97;0.60;;;;;;;;;;4904713;29;20040;-54
2021/06/26 12:15:06;;;;;;;2.78;0.77;;;;;;;;;;4907026;29;20997;-54
2021/06/26 12:17:32;;;;;;;2.50;0.60;;;;;;;;;;4905981;29;20592;-54
2021/06/26 12:20:05;;;;;;;2.92;0.80;;;;;;;;;;4906500;29;20134;-55
2021/06/26 12:22:31;;;;;;;2.47;0.60;;;;;;;;;;4904657;29;20147;-55
2021/06/26 12:25:10;;;;;;;2.30;0.70;;;;;;;;;;4907965;29;20187;-55
2021/06/26 12:27:37;;;;;;;2.58;0.70;;;;;;;;;;4905613;29;20468;-55
2021/06/26 12:30:04;;;;;;;6.88;0.70;;;;;;;;;;4907044;29;20067;-55
2021/06/26 12:32:32;;;;;;;5.13;0.60;;;;;;;;;;4904342;29;20146;-55
2021/06/26 12:34:58;;;;;;;3.90;0.70;;;;;;;;;;4905091;29;20457;-55
2021/06/26 12:37:28;;;;;;;2.60;0.73;;;;;;;;;;4906954;29;20040;-53
2021/06/26 12:40:00;;;;;;;3.67;0.68;;;;;;;;;;4907101;29;20111;-55
2021/06/26 12:42:26;;;;;;;3.65;0.82;;;;;;;;;;4907944;29;20408;-55
2021/06/26 12:44:56;;;;;;;6.28;0.63;;;;;;;;;;4906811;29;20036;-54
2021/06/26 12:47:22;;;;;;;2.08;0.60;;;;;;;;;;4908967;29;20095;-56
2021/06/26 12:49:52;;;;;;;2.85;0.70;;;;;;;;;;4908457;29;20505;-55
2021/06/26 12:52:18;;;;;;;6.72;0.80;;;;;;;;;;4906370;29;20503;-55
2021/06/26 12:54:54;;;;;;;2.33;0.70;;;;;;;;;;4893630;29;20056;-55
2021/06/26 12:57:20;;;;;;;2.55;0.88;;;;;;;;;;4910641;29;20041;-56
2021/06/26 12:59:46;;;;;;;5.03;1.58;;;;;;;;;;4909117;29;20068;-57
2021/06/26 13:02:12;;;;;;;3.88;0.80;;;;;;;;;;4908499;29;20187;-57
2021/06/26 13:04:39;;;;;;;2.33;0.70;;;;;;;;;;4893059;29;20054;-58
2021/06/26 13:07:05;;;;;;;2.90;0.70;;;;;;;;;;4909449;29;20045;-57
2021/06/26 13:09:43;;;;;;;3.63;0.68;;;;;;;;;;4908800;29;20047;-57
2021/06/26 13:12:11;;;;;;;1.38;0.50;;;;;;;;;;4909358;29;20044;-57
2021/06/26 13:14:40;;;;;;;6.18;0.75;;;;;;;;;;4908919;29;20040;-57
2021/06/26 13:17:07;;;;;;;1.98;0.70;;;;;;;;;;4908136;29;20146;-57
2021/06/26 13:19:32;;;;;;;2.47;0.70;;;;;;;;;;4907459;29;20494;-56
2021/06/26 13:21:58;;;;;;;2.80;0.77;;;;;;;;;;4908354;29;20050;-57
2021/06/26 13:24:24;;;;;;;2.70;0.80;;;;;;;;;;4907520;29;20040;-58
2021/06/26 13:26:50;;;;;;;6.28;0.70;;;;;;;;;;4908411;29;20044;-57
2021/06/26 13:29:16;;;;;;;1.52;0.60;;;;;;;;;;4908558;29;20063;-57
2021/06/26 13:31:42;;;;;;;2.40;0.73;;;;;;;;;;4908293;29;20044;-56
2021/06/26 13:34:08;;;;;;;4.00;0.88;;;;;;;;;;4908775;29;20047;-57
2021/06/26 13:36:34;;;;;;;2.55;0.90;;;;;;;;;;4908040;29;20047;-57
2021/06/26 13:39:00;;;;;;;10.07;3.63;;;;;;;;;;4909906;29;20047;-56
2021/06/26 13:41:26;;;;;;;2.92;0.70;;;;;;;;;;4906837;29;20498;-58
2021/06/26 13:43:51;;;;;;;2.05;0.57;;;;;;;;;;4908418;29;20048;-58
2021/06/26 13:46:17;;;;;;;3.80;0.70;;;;;;;;;;4908780;29;20934;-58
2021/06/26 13:48:43;;;;;;;3.15;0.73;;;;;;;;;;4908195;29;20497;-56
2021/06/26 13:51:09;;;;;;;3.42;0.60;;;;;;;;;;4907835;29;20052;-57
2021/06/26 13:53:35;;;;;;;1.98;0.70;;;;;;;;;;4906249;29;20144;-57
2021/06/26 13:56:01;;;;;;;2.05;0.60;;;;;;;;;;4908591;29;20047;-57
2021/06/26 13:58:27;;;;;;;5.43;0.68;;;;;;;;;;4906580;29;20060;-57
2021/06/26 14:00:52;;;;;;;3.50;1.35;;;;;;;;;;4907703;29;20080;-58
2021/06/26 14:03:19;;;;;;;2.97;1.00;;;;;;;;;;4906750;29;20087;-57
2021/06/26 14:05:45;;;;;;;5.82;0.90;;;;;;;;;;4907530;29;20047;-58
2021/06/26 14:08:11;;;;;;;5.15;1.00;;;;;;;;;;4907828;29;20046;-54
2021/06/26 14:10:39;;;;;;;3.10;0.60;;;;;;;;;;4907690;29;20043;-58
2021/06/26 14:13:06;;;;;;;4.80;0.80;;;;;;;;;;4906730;29;20066;-58
2021/06/26 14:15:32;;;;;;;4.30;0.60;;;;;;;;;;4907379;29;20063;-58
2021/06/26 14:17:58;;;;;;;2.10;0.60;;;;;;;;;;4909272;29;20039;-57
2021/06/26 14:20:23;;;;;;;1.75;0.50;;;;;;;;;;4906839;29;20063;-58
2021/06/26 14:22:49;;;;;;;4.30;0.70;;;;;;;;;;4905817;29;20054;-58
2021/06/26 14:25:15;;;;;;;2.72;0.80;;;;;;;;;;4906948;29;20051;-58
2021/06/26 14:27:42;;;;;;;2.58;0.57;;;;;;;;;;4906420;29;20481;-58
2021/06/26 14:30:10;;;;;;;2.88;0.80;;;;;;;;;;4908151;29;20916;-58
2021/06/26 14:32:36;;;;;;;2.10;0.57;;;;;;;;;;4906277;29;20123;-58
2021/06/26 14:35:02;;;;;;;2.38;0.60;;;;;;;;;;4907366;29;20032;-57
2021/06/26 14:37:28;;;;;;;1.80;0.60;;;;;;;;;;4906316;29;20521;-57
2021/06/26 14:39:54;;;;;;;4.88;1.33;;;;;;;;;;4906889;29;20151;-57
2021/06/26 14:42:22;;;;;;;2.63;0.60;;;;;;;;;;4905119;29;20043;-58